Time;durP1;ratioP1;P1;durP2;ratioP2;P2;SDS_P1;SDS_P2;PMS_P1;PMS_P2;Temp;Humidity;BMP_temperature;BMP_pressure;BME280_temperature;BME280_humidity;BME280_pressure;Samples;Min_cycle;Max_cycle;Signal;HPM_P1;HPM_P2
2022/12/12 00:02:03;;;;;;;17.97;9.10;;;;;;;-0.22;86.60;100991.56;5034005;28;20040;-77
2022/12/12 00:04:28;;;;;;;17.40;9.30;;;;;;;-0.23;86.60;100989.84;5034012;28;20033;-77
2022/12/12 00:06:54;;;;;;;19.03;8.60;;;;;;;-0.24;85.64;100988.13;5032626;28;20033;-77
2022/12/12 00:09:19;;;;;;;18.33;9.63;;;;;;;-0.27;86.06;100995.72;5033569;28;20041;-77
2022/12/12 00:11:44;;;;;;;16.93;9.20;;;;;;;-0.31;85.68;100993.91;5029339;28;20400;-77
2022/12/12 00:14:10;;;;;;;18.03;8.50;;;;;;;-0.35;85.69;100990.44;5032028;28;20041;-77
2022/12/12 00:16:35;;;;;;;17.00;8.70;;;;;;;-0.42;85.78;100991.13;5032305;28;20087;-77
2022/12/12 00:19:00;;;;;;;17.63;8.20;;;;;;;-0.49;85.53;100997.78;5031957;28;20025;-77
2022/12/12 00:21:27;;;;;;;18.53;8.73;;;;;;;-0.56;85.36;100998.50;5030878;28;20032;-77
2022/12/12 00:23:53;;;;;;;16.93;8.80;;;;;;;-0.63;85.49;100999.19;5031633;28;20098;-77
2022/12/12 00:26:23;;;;;;;18.93;9.03;;;;;;;-0.71;85.83;100988.78;5011440;28;20524;-77
2022/12/12 00:28:49;;;;;;;17.37;9.07;;;;;;;-0.77;85.39;100992.06;5032697;28;20409;-77
2022/12/12 00:31:15;;;;;;;14.90;8.00;;;;;;;-0.81;86.04;100995.38;5032959;28;20036;-77
2022/12/12 00:33:43;;;;;;;17.03;8.70;;;;;;;-0.86;85.75;100991.88;5032868;28;20034;-77
2022/12/12 00:36:09;;;;;;;19.53;9.17;;;;;;;-0.93;85.15;100995.94;5030744;28;20025;-77
2022/12/12 00:38:35;;;;;;;16.23;8.13;;;;;;;-0.99;85.27;100994.94;5032767;28;20040;-76
2022/12/12 00:41:01;;;;;;;17.03;8.13;;;;;;;-1.05;85.79;100995.66;5032129;28;20033;-77
2022/12/12 00:43:26;;;;;;;14.17;7.23;;;;;;;-1.12;85.33;100994.66;5032803;28;20075;-76
2022/12/12 00:45:52;;;;;;;16.87;8.43;;;;;;;-1.17;85.73;101001.31;5032213;28;20049;-77
2022/12/12 00:48:18;;;;;;;17.77;8.43;;;;;;;-1.22;85.81;100998.66;5030310;28;20480;-76
2022/12/12 00:50:44;;;;;;;15.00;7.77;;;;;;;-1.26;85.52;101001.09;5031082;28;20052;-76
2022/12/12 00:53:10;;;;;;;15.00;7.80;;;;;;;-1.31;85.59;100997.56;5030773;28;20064;-77
2022/12/12 00:55:35;;;;;;;15.90;7.80;;;;;;;-1.34;85.27;101005.13;5031960;28;20068;-77
2022/12/12 00:58:01;;;;;;;13.90;7.90;;;;;;;-1.39;85.83;101005.91;5027901;28;20432;-77
2022/12/12 01:00:27;;;;;;;16.67;8.43;;;;;;;-1.43;85.85;100998.09;5032527;28;20029;-76
2022/12/12 01:02:55;;;;;;;14.90;7.77;;;;;;;-1.47;85.78;100994.63;5032389;28;20033;-77
2022/12/12 01:05:21;;;;;;;13.23;7.03;;;;;;;-1.50;85.82;101006.44;5031692;28;20396;-76
2022/12/12 01:07:46;;;;;;;14.67;7.70;;;;;;;-1.52;85.70;101008.94;5012826;28;20129;-77
2022/12/12 01:10:11;;;;;;;15.90;7.87;;;;;;;-1.57;85.66;101016.47;5018459;28;20026;-77
2022/12/12 01:12:36;;;;;;;15.00;8.10;;;;;;;-1.60;86.40;101005.31;5018015;28;20418;-77
2022/12/12 01:15:04;;;;;;;18.43;8.53;;;;;;;-1.65;85.90;101014.53;5014926;28;20029;-77
2022/12/12 01:17:34;;;;;;;17.50;8.73;;;;;;;-1.70;85.94;101016.97;5031242;28;20084;-77
2022/12/12 01:20:01;;;;;;;18.70;9.00;;;;;;;-1.71;86.54;101020.34;4999702;28;20069;-77
2022/12/12 01:22:26;;;;;;;19.10;9.27;;;;;;;-1.75;86.23;101021.94;5011976;28;20192;-77
2022/12/12 01:24:55;;;;;;;16.30;8.20;;;;;;;-1.75;86.57;101021.06;5030824;28;20209;-77
2022/12/12 01:27:21;;;;;;;16.80;7.57;;;;;;;-1.76;86.73;101030.41;5014782;28;20036;-76
2022/12/12 01:29:46;;;;;;;16.93;8.27;;;;;;;-1.76;86.74;101030.41;5031911;28;20054;-76
2022/12/12 01:32:11;;;;;;;16.77;8.47;;;;;;;-1.76;87.59;101034.63;5030240;28;20032;-76
2022/12/12 01:34:37;;;;;;;17.97;8.97;;;;;;;-1.78;87.27;101037.16;5032135;28;20021;-76
2022/12/12 01:37:02;;;;;;;16.23;7.80;;;;;;;-1.77;87.36;101043.09;5030904;28;20395;-77
2022/12/12 01:39:27;;;;;;;17.30;8.77;;;;;;;-1.79;87.52;101043.06;5029727;28;20040;-76
2022/12/12 01:41:52;;;;;;;15.90;8.77;;;;;;;-1.78;87.62;101047.34;5030242;28;20025;-77
2022/12/12 01:44:42;;;;;;;15.93;7.93;;;;;;;-1.77;87.11;101050.75;5028476;28;20083;-77
2022/12/12 01:47:07;;;;;;;17.33;8.20;;;;;;;-1.79;87.07;101055.81;5029082;28;20045;-76
2022/12/12 01:49:34;;;;;;;16.40;8.03;;;;;;;-1.82;86.95;101053.19;5028433;28;20052;-77
2022/12/12 01:52:06;;;;;;;18.70;8.87;;;;;;;-1.84;87.00;101058.25;5030800;28;20030;-77
2022/12/12 01:54:40;;;;;;;18.92;9.13;;;;;;;-1.87;86.80;101053.06;5029799;28;20061;-77
2022/12/12 01:57:09;;;;;;;18.70;9.80;;;;;;;-1.87;87.30;101058.16;5031903;28;20036;-77
2022/12/12 01:59:36;;;;;;;22.07;9.43;;;;;;;-1.87;87.41;101062.38;5030887;28;20103;-77
2022/12/12 02:02:03;;;;;;;16.53;8.73;;;;;;;-1.88;87.13;101065.78;5031886;28;20365;-77
2022/12/12 02:04:29;;;;;;;19.47;9.23;;;;;;;-1.90;86.62;101067.41;5027912;28;20036;-77
2022/12/12 02:06:55;;;;;;;18.13;9.23;;;;;;;-1.92;86.96;101063.94;5019555;28;20022;-77
2022/12/12 02:09:23;;;;;;;19.00;9.57;;;;;;;-1.93;87.44;101063.06;5023256;28;20029;-77
2022/12/12 02:11:52;;;;;;;23.67;10.57;;;;;;;-1.92;87.11;101069.06;5028369;28;20504;-77
2022/12/12 02:14:31;;;;;;;21.40;10.53;;;;;;;-1.92;87.77;101069.06;5012440;28;20021;-77
2022/12/12 02:17:21;;;;;;;22.80;11.07;;;;;;;-1.93;87.73;101059.66;5032703;28;20095;-77
2022/12/12 02:20:21;;;;;;;22.77;10.20;;;;;;;-1.94;87.18;101069.00;5034074;28;20036;-77
2022/12/12 02:22:49;;;;;;;21.97;10.37;;;;;;;-1.94;87.15;101060.50;5028978;28;20030;-77
2022/12/12 02:25:38;;;;;;;18.77;9.23;;;;;;;-1.95;87.00;101064.72;5027075;28;20093;-77
2022/12/12 02:28:24;;;;;;;21.13;9.57;;;;;;;-1.97;87.37;101066.38;5016083;28;20033;-77
2022/12/12 02:31:13;;;;;;;20.07;9.60;;;;;;;-1.96;87.22;101069.78;5027537;28;20211;-76
2022/12/12 02:33:48;;;;;;;16.83;8.33;;;;;;;-1.98;87.52;101070.59;5015982;28;20092;-77
2022/12/12 02:36:19;;;;;;;17.27;8.60;;;;;;;-1.98;87.89;101068.03;5016197;28;20147;-77
2022/12/12 02:39:02;;;;;;;19.88;9.60;;;;;;;-1.96;87.28;101064.69;5023690;28;20045;-77
2022/12/12 02:41:46;;;;;;;19.27;8.90;;;;;;;-1.98;87.25;101065.50;5016602;28;20072;-77
2022/12/12 02:44:54;;;;;;;19.37;8.57;;;;;;;-2.00;87.53;101067.13;5032886;28;20108;-77
2022/12/12 02:47:25;;;;;;;19.83;9.33;;;;;;;-2.07;87.16;101065.25;5024690;28;20049;-77
2022/12/12 02:49:55;;;;;;;21.27;9.23;;;;;;;-2.11;87.11;101063.41;5029825;28;20108;-77
2022/12/12 02:52:21;;;;;;;19.70;9.27;;;;;;;-2.13;86.89;101059.94;5025745;28;20076;-77
2022/12/12 02:54:50;;;;;;;17.80;8.83;;;;;;;-2.17;87.25;101068.31;5015592;28;20120;-77
2022/12/12 02:57:18;;;;;;;17.97;8.70;;;;;;;-2.19;86.56;101062.31;5020344;28;20088;-77
2022/12/12 02:59:56;;;;;;;18.97;9.03;;;;;;;-2.24;86.74;101061.31;5033687;28;20033;-77
2022/12/12 03:02:43;;;;;;;19.63;9.23;;;;;;;-2.29;86.84;101069.69;5032729;28;20029;-77
2022/12/12 03:08:40;;;;;;;20.17;9.67;;;;;;;-2.38;86.95;101066.84;5004018;28;20049;-77
2022/12/12 03:11:09;;;;;;;23.57;10.43;;;;;;;-2.44;87.42;101061.56;5032725;28;20489;-77
2022/12/12 03:13:53;;;;;;;23.13;9.63;;;;;;;-2.48;86.72;101058.06;5033895;28;20447;-77
2022/12/12 03:16:31;;;;;;;20.33;9.30;;;;;;;-2.51;86.89;101060.50;5012025;28;20041;-77
2022/12/12 03:18:59;;;;;;;21.77;9.23;;;;;;;-2.54;87.51;101068.06;5015534;28;20425;-77
2022/12/12 03:21:47;;;;;;;20.43;10.10;;;;;;;-2.55;87.58;101061.22;5016902;28;20105;-77
2022/12/12 03:24:32;;;;;;;23.30;10.07;;;;;;;-2.55;87.74;101066.31;5017917;28;20037;-76
2022/12/12 03:27:05;;;;;;;19.40;8.57;;;;;;;-2.54;87.28;101065.50;5002817;28;20381;-77
2022/12/12 03:29:37;;;;;;;20.43;9.27;;;;;;;-2.57;86.94;101059.47;5026976;28;20055;-77
2022/12/12 03:32:08;;;;;;;17.55;8.95;;;;;;;-2.61;86.77;101068.66;5033266;28;20029;-77
2022/12/12 03:34:41;;;;;;;24.50;10.80;;;;;;;-2.70;86.93;101071.78;5022456;28;20116;-77
2022/12/12 03:37:16;;;;;;;21.10;10.03;;;;;;;-2.72;87.33;101073.41;5027612;28;20076;-77
2022/12/12 03:39:48;;;;;;;17.60;8.67;;;;;;;-2.76;87.09;101069.91;5028769;28;20040;-77
2022/12/12 03:42:17;;;;;;;;;;;;;;;-2.75;86.40;101066.53;5030473;28;20044;-76
2022/12/12 03:44:55;;;;;;;22.43;9.87;;;;;;;-2.81;86.69;101073.97;5033199;28;20275;-76
2022/12/12 03:47:34;;;;;;;22.90;11.30;;;;;;;-2.86;86.71;101077.19;5025106;28;20037;-76
2022/12/12 03:50:03;;;;;;;21.07;9.77;;;;;;;-2.89;86.81;101075.41;5028187;28;20025;-76
2022/12/12 03:52:35;;;;;;;18.23;8.90;;;;;;;-2.92;86.44;101070.22;5028925;28;20033;-76
2022/12/12 03:55:00;;;;;;;;;;;;;;;-2.94;86.17;101077.81;5030158;28;20040;-77
2022/12/12 03:57:32;;;;;;;18.50;9.13;;;;;;;-2.99;86.46;101073.38;5028264;28;19913;-76
2022/12/12 04:00:00;;;;;;;;;;;;;;;-2.99;86.70;101081.88;5031164;28;20025;-76
2022/12/12 04:02:39;;;;;;;19.93;9.57;;;;;;;-3.06;86.57;101075.72;5029252;28;20490;-76
2022/12/12 04:05:27;;;;;;;19.43;9.17;;;;;;;-3.08;86.47;101079.03;5026183;28;20025;-76
2022/12/12 04:08:01;;;;;;;22.50;10.33;;;;;;;-3.15;86.10;101077.94;5021920;28;20029;-76
2022/12/12 04:13:31;;;;;;;21.10;9.48;;;;;;;-3.17;86.29;101091.44;5029600;28;20127;-76
2022/12/12 04:16:22;;;;;;;19.20;8.67;;;;;;;-3.20;86.74;101087.97;5027849;28;20353;-76
2022/12/12 04:18:56;;;;;;;20.63;8.97;;;;;;;-3.22;86.53;101086.19;5027891;28;20029;-76
2022/12/12 04:24:44;;;;;;;17.97;7.93;;;;;;;-3.27;86.11;101088.59;5029564;28;20043;-76
2022/12/12 04:27:21;;;;;;;18.43;8.00;;;;;;;-3.30;86.45;101085.94;5028876;28;20132;-76
2022/12/12 04:29:54;;;;;;;19.70;8.73;;;;;;;-3.31;86.59;101093.47;5028914;28;20500;-76
2022/12/12 04:32:34;;;;;;;19.80;8.57;;;;;;;-3.32;86.51;101099.38;5027547;28;20091;-76
2022/12/12 04:35:10;;;;;;;19.87;8.53;;;;;;;-3.34;86.56;101099.34;5027107;28;20082;-76
2022/12/12 04:37:56;;;;;;;21.97;8.90;;;;;;;-3.40;86.35;101094.03;5026201;28;20120;-77
2022/12/12 04:40:27;;;;;;;19.27;8.23;;;;;;;-3.44;86.64;101098.16;5026820;28;20088;-76
2022/12/12 04:42:59;;;;;;;20.05;9.48;;;;;;;-3.47;86.48;101102.28;5027557;28;20079;-76
2022/12/12 04:45:33;;;;;;;21.67;9.23;;;;;;;-3.49;86.33;101101.34;5027456;28;20017;-76
2022/12/12 04:48:00;;;;;;;18.53;8.53;;;;;;;-3.51;86.16;101108.94;5027134;28;20033;-76
2022/12/12 04:50:28;;;;;;;19.13;9.33;;;;;;;-3.53;86.76;101106.31;5027094;28;20036;-76
2022/12/12 04:52:56;;;;;;;16.60;7.57;;;;;;;-3.52;86.46;101108.03;5027755;28;20380;-76
2022/12/12 04:55:34;;;;;;;20.63;8.93;;;;;;;-3.53;86.76;101098.69;5024423;28;20135;-76
2022/12/12 04:58:01;;;;;;;23.17;9.77;;;;;;;-3.55;86.33;101102.84;5029029;28;20053;-76
2022/12/12 05:00:33;;;;;;;20.37;9.13;;;;;;;-3.55;86.91;101102.00;5027791;28;20034;-76
2022/12/12 05:03:09;;;;;;;19.03;8.73;;;;;;;-3.57;86.33;101099.38;5027911;28;20459;-76
2022/12/12 05:05:49;;;;;;;19.43;8.63;;;;;;;-3.58;86.87;101092.56;5023309;28;20026;-76
2022/12/12 05:08:31;;;;;;;19.90;9.10;;;;;;;-3.55;87.64;101097.75;5024818;28;20025;-76
2022/12/12 05:10:59;;;;;;;18.35;8.70;;;;;;;-3.54;87.37;101096.09;5028900;28;20025;-76
2022/12/12 05:13:40;;;;;;;21.87;8.30;;;;;;;-3.54;87.25;101099.50;5027887;28;20079;-76
2022/12/12 05:16:26;;;;;;;20.03;8.07;;;;;;;-3.52;87.35;101097.88;5026953;28;20029;-76
2022/12/12 05:18:51;;;;;;;19.90;8.40;;;;;;;-3.55;86.68;101102.84;5027490;28;20029;-77
2022/12/12 05:21:17;;;;;;;18.77;8.47;;;;;;;-3.58;86.97;101102.72;5027039;28;20025;-76
2022/12/12 05:23:42;;;;;;;18.37;8.30;;;;;;;-3.61;86.36;101110.28;5012341;28;20077;-76
2022/12/12 05:26:20;;;;;;;20.33;9.33;;;;;;;-3.66;86.62;101110.06;5027684;28;20374;-76
2022/12/12 05:28:45;;;;;;;22.90;8.70;;;;;;;-3.68;86.64;101115.94;5026978;28;20049;-76
2022/12/12 05:31:11;;;;;;;20.73;9.70;;;;;;;-3.70;86.86;101109.91;5028787;28;20029;-76
2022/12/12 05:33:36;;;;;;;21.47;9.40;;;;;;;-3.74;86.48;101106.41;5027699;28;20034;-76
2022/12/12 05:36:01;;;;;;;24.13;9.73;;;;;;;-3.74;86.36;101115.69;5028289;28;20410;-76
2022/12/12 05:38:26;;;;;;;23.77;9.13;;;;;;;-3.76;86.53;101118.19;5026002;28;20036;-76
2022/12/12 05:40:52;;;;;;;24.10;10.83;;;;;;;-3.78;86.47;101112.19;5027136;28;20053;-76
2022/12/12 05:43:17;;;;;;;21.13;9.47;;;;;;;-3.80;86.58;101118.88;5026767;28;20431;-76
2022/12/12 05:45:42;;;;;;;22.97;9.73;;;;;;;-3.85;86.05;101118.72;5026648;28;20044;-76
2022/12/12 05:48:08;;;;;;;21.27;8.80;;;;;;;-3.87;86.31;101114.38;5025338;28;20021;-76
2022/12/12 05:50:33;;;;;;;24.40;9.70;;;;;;;-3.89;86.38;101116.84;5028790;28;20033;-76
2022/12/12 05:52:58;;;;;;;20.50;8.93;;;;;;;-3.89;86.20;101119.41;5033634;28;20396;-76
2022/12/12 05:55:24;;;;;;;22.30;9.43;;;;;;;-3.90;86.68;101124.44;5030746;28;20076;-76
2022/12/12 05:57:49;;;;;;;17.97;7.77;;;;;;;-3.90;86.13;101125.28;5031765;28;20035;-76
2022/12/12 06:00:14;;;;;;;19.97;8.47;;;;;;;-3.92;86.10;101119.28;5032511;28;20484;-76
2022/12/12 06:02:40;;;;;;;19.53;7.97;;;;;;;-3.94;86.13;101128.53;5027406;28;20064;-76
2022/12/12 06:05:06;;;;;;;20.00;9.07;;;;;;;-3.98;86.35;101125.00;5028257;28;20396;-76
2022/12/12 06:07:31;;;;;;;19.87;8.80;;;;;;;-3.99;86.29;101124.94;5030480;28;20087;-76
2022/12/12 06:09:56;;;;;;;23.90;9.57;;;;;;;-4.00;86.49;101125.75;5032295;28;20025;-76
2022/12/12 06:12:22;;;;;;;22.70;8.93;;;;;;;-4.04;86.51;101126.44;5035626;28;20029;-76
2022/12/12 06:14:47;;;;;;;24.03;9.97;;;;;;;-4.06;86.47;101126.38;5030654;28;20492;-76
2022/12/12 06:17:12;;;;;;;20.67;8.77;;;;;;;-4.08;86.24;101119.50;5031847;28;20025;-76
2022/12/12 06:19:37;;;;;;;22.33;8.63;;;;;;;-4.09;86.06;101117.75;5023625;28;20503;-76
2022/12/12 06:22:03;;;;;;;20.63;8.33;;;;;;;-4.11;86.07;101120.25;5028255;28;20037;-77
2022/12/12 06:24:28;;;;;;;22.43;7.93;;;;;;;-4.10;85.92;101128.75;5031306;28;21397;-81
2022/12/12 06:26:53;;;;;;;16.37;7.20;;;;;;;-4.12;86.67;101129.56;5028241;28;20097;-77
2022/12/12 06:29:19;;;;;;;18.90;8.00;;;;;;;-4.12;86.59;101138.84;5025122;28;20045;-77
2022/12/12 06:31:44;;;;;;;19.70;8.00;;;;;;;-4.15;86.16;101139.59;5023850;28;20095;-77
2022/12/12 06:34:09;;;;;;;20.30;7.87;;;;;;;-4.18;86.24;101136.94;5035707;28;20423;-77
2022/12/12 06:36:35;;;;;;;20.57;8.97;;;;;;;-4.19;86.22;101142.81;5035462;28;20021;-77
2022/12/12 06:39:01;;;;;;;21.10;8.73;;;;;;;-4.20;86.28;101140.22;5034653;28;20025;-77
2022/12/12 06:41:28;;;;;;;22.60;9.87;;;;;;;-4.24;85.89;101139.22;5035431;28;20104;-77
2022/12/12 06:43:54;;;;;;;21.60;9.17;;;;;;;-4.26;86.25;101140.84;5031016;28;20045;-77
2022/12/12 06:46:26;;;;;;;21.77;9.10;;;;;;;-4.26;86.05;101145.91;5027287;28;20022;-77
2022/12/12 06:48:52;;;;;;;21.88;9.13;;;;;;;-4.29;86.24;101151.75;5030180;28;20468;-77
2022/12/12 06:51:24;;;;;;;28.67;9.60;;;;;;;-4.31;86.24;101149.97;5019085;28;20026;-77
2022/12/12 06:53:50;;;;;;;;;;;;;;;-4.30;86.17;101150.00;5028886;28;20443;-77
2022/12/12 06:56:18;;;;;;;23.30;9.00;;;;;;;-4.34;86.36;101155.78;5034188;28;20386;-77
2022/12/12 06:58:43;;;;;;;22.73;8.97;;;;;;;-4.35;85.70;101160.81;5027562;28;20048;-77
2022/12/12 07:01:14;;;;;;;19.90;8.33;;;;;;;-4.36;86.19;101162.50;5030084;28;20033;-77
2022/12/12 07:03:40;;;;;;;21.37;8.30;;;;;;;-4.39;85.91;101164.00;5031785;28;20036;-76
2022/12/12 07:06:06;;;;;;;26.83;9.07;;;;;;;-4.43;85.79;101168.97;5025961;28;20389;-77
2022/12/12 07:08:33;;;;;;;22.87;9.30;;;;;;;-4.45;86.16;101168.06;5029973;28;20487;-77
2022/12/12 07:11:03;;;;;;;23.73;9.07;;;;;;;-4.44;86.14;101159.59;5029585;28;20118;-77
2022/12/12 07:13:28;;;;;;;20.50;7.53;;;;;;;-4.46;85.69;101168.88;5028951;28;20045;-77
2022/12/12 07:15:54;;;;;;;23.80;8.33;;;;;;;-4.46;85.72;101163.78;5023216;28;20059;-77
2022/12/12 07:18:19;;;;;;;19.07;8.80;;;;;;;-4.50;85.80;101167.00;5030367;28;20033;-77
2022/12/12 07:20:45;;;;;;;21.80;8.83;;;;;;;-4.50;85.84;101169.53;5031772;28;20567;-77
2022/12/12 07:23:11;;;;;;;19.00;7.70;;;;;;;-4.49;85.76;101171.28;5031097;28;20025;-77
2022/12/12 07:25:41;;;;;;;21.97;8.80;;;;;;;-4.49;86.26;101178.88;5030081;28;20030;-77
2022/12/12 07:28:09;;;;;;;18.57;7.60;;;;;;;-4.50;86.02;101182.22;5030125;28;20528;-77
2022/12/12 07:30:38;;;;;;;22.93;9.03;;;;;;;-4.50;85.90;101192.38;5029919;28;20041;-77
2022/12/12 07:33:03;;;;;;;20.40;8.23;;;;;;;-4.50;86.23;101186.41;5030421;28;20023;-77
2022/12/12 07:35:29;;;;;;;20.30;8.03;;;;;;;-4.48;86.09;101188.25;5029253;28;20404;-77
2022/12/12 07:37:55;;;;;;;20.27;7.67;;;;;;;-4.48;86.59;101180.63;5028872;28;20026;-77
2022/12/12 07:40:20;;;;;;;20.60;8.17;;;;;;;-4.45;86.92;101188.38;5025068;28;20056;-77
2022/12/12 07:42:46;;;;;;;21.63;8.40;;;;;;;-4.44;86.69;101177.38;5029295;28;20037;-77
2022/12/12 07:45:11;;;;;;;19.10;7.77;;;;;;;-4.39;86.95;101189.41;5028993;28;20030;-77
2022/12/12 07:47:36;;;;;;;22.50;8.57;;;;;;;-4.38;86.82;101193.69;5026579;28;20024;-77
2022/12/12 07:50:02;;;;;;;20.17;7.60;;;;;;;-4.35;86.47;101193.81;5029962;28;20110;-77
2022/12/12 07:52:27;;;;;;;21.23;7.97;;;;;;;-4.37;86.64;101188.69;5024417;28;20041;-77
2022/12/12 07:54:52;;;;;;;18.43;7.97;;;;;;;-4.37;86.39;101191.22;5014304;28;20053;-77
2022/12/12 07:57:17;;;;;;;25.40;8.40;;;;;;;-4.37;86.29;101195.44;5016734;28;20093;-77
2022/12/12 07:59:43;;;;;;;26.00;9.83;;;;;;;-4.39;86.36;101194.50;5015140;28;20033;-77
2022/12/12 08:02:09;;;;;;;21.87;8.40;;;;;;;-4.41;86.59;101191.91;5026532;28;20031;-77
2022/12/12 08:04:35;;;;;;;25.47;8.77;;;;;;;-4.42;86.48;101201.19;5026984;28;20029;-77
2022/12/12 08:07:00;;;;;;;25.33;9.37;;;;;;;-4.41;86.00;101209.69;5018162;28;20034;-77
2022/12/12 08:09:25;;;;;;;23.20;9.30;;;;;;;-4.40;86.40;101208.88;5020161;28;20032;-77
2022/12/12 08:11:55;;;;;;;21.50;8.60;;;;;;;-4.39;86.48;101212.28;5022875;28;20385;-77
2022/12/12 08:14:21;;;;;;;23.57;8.47;;;;;;;-4.39;86.46;101213.16;5027991;28;20060;-77
2022/12/12 08:16:46;;;;;;;22.33;8.43;;;;;;;-4.36;86.31;101207.31;5033598;28;20465;-77
2022/12/12 08:19:11;;;;;;;22.73;8.50;;;;;;;-4.32;87.02;101204.09;5014834;28;20487;-77
2022/12/12 08:21:37;;;;;;;24.17;8.63;;;;;;;-4.30;86.66;101205.91;5019487;28;20026;-77
2022/12/12 08:24:02;;;;;;;21.27;8.47;;;;;;;-4.25;86.62;101210.31;5024353;28;20033;-76
2022/12/12 08:26:29;;;;;;;18.87;6.90;;;;;;;-4.21;87.03;101210.47;5018301;28;20028;-77
2022/12/12 08:28:55;;;;;;;17.57;7.33;;;;;;;-4.19;86.35;101215.66;5018907;28;20341;-77
2022/12/12 08:31:21;;;;;;;21.73;8.97;;;;;;;-4.19;86.88;101218.19;5029564;28;20117;-77
2022/12/12 08:33:49;;;;;;;18.87;7.43;;;;;;;-4.19;87.03;101219.03;5041050;28;20086;-77
2022/12/12 08:36:17;;;;;;;20.33;7.83;;;;;;;-4.18;86.72;101223.31;5049617;28;20029;-77
2022/12/12 08:38:43;;;;;;;20.30;8.00;;;;;;;-4.16;86.64;101225.91;5026619;28;20025;-77
2022/12/12 08:41:10;;;;;;;24.13;8.67;;;;;;;-4.14;86.42;101227.72;5029422;28;20396;-77
2022/12/12 08:43:37;;;;;;;22.17;8.80;;;;;;;-4.10;86.40;101228.72;5031782;28;20033;-77
2022/12/12 08:46:03;;;;;;;22.03;8.03;;;;;;;-4.09;86.68;101229.56;5013274;28;20053;-77
2022/12/12 08:48:32;;;;;;;21.47;9.03;;;;;;;-4.08;86.70;101232.19;5019408;28;20064;-77
2022/12/12 08:50:57;;;;;;;20.47;8.37;;;;;;;-4.07;86.38;101228.84;5017288;28;20044;-77
2022/12/12 08:53:23;;;;;;;25.30;10.27;;;;;;;-4.06;86.93;101229.69;5032230;28;20033;-77
2022/12/12 08:55:49;;;;;;;24.20;10.13;;;;;;;-4.04;87.00;101230.63;5029297;28;20029;-77
2022/12/12 08:58:14;;;;;;;25.20;10.23;;;;;;;-3.99;87.35;101239.31;5027747;28;20107;-77
2022/12/12 09:00:40;;;;;;;22.83;9.17;;;;;;;-3.94;87.35;101234.41;5019961;28;20025;-77
2022/12/12 09:03:05;;;;;;;25.70;9.13;;;;;;;-3.93;87.09;101239.56;5029623;28;20159;-77
2022/12/12 09:05:30;;;;;;;23.97;8.87;;;;;;;-3.88;87.23;101234.66;5021478;28;20026;-77
2022/12/12 09:07:56;;;;;;;24.23;9.17;;;;;;;-3.84;86.93;101245.00;5015574;28;20034;-77
2022/12/12 09:10:21;;;;;;;25.10;9.13;;;;;;;-3.81;87.44;101244.25;5021604;28;20025;-77
2022/12/12 09:12:47;;;;;;;23.63;8.57;;;;;;;-3.77;87.42;101247.81;5029474;28;20061;-77
2022/12/12 09:15:13;;;;;;;22.37;8.87;;;;;;;-3.74;87.23;101241.16;5024355;28;20434;-77
2022/12/12 09:17:38;;;;;;;24.67;8.33;;;;;;;-3.70;87.04;101250.63;5005046;28;20025;-77
2022/12/12 09:20:05;;;;;;;23.63;8.07;;;;;;;-3.67;87.22;101242.25;5025355;28;20145;-77
2022/12/12 09:22:31;;;;;;;22.60;8.60;;;;;;;-3.67;87.00;101244.81;5024360;28;20331;-77
2022/12/12 09:24:56;;;;;;;21.77;8.53;;;;;;;-3.62;86.94;101238.22;5020260;28;20036;-77
2022/12/12 09:27:21;;;;;;;22.60;9.00;;;;;;;-3.59;86.98;101232.38;5028552;28;20075;-77
2022/12/12 09:29:46;;;;;;;22.97;8.77;;;;;;;-3.58;87.03;101229.88;5028419;28;20041;-77
2022/12/12 09:32:12;;;;;;;22.50;8.63;;;;;;;-3.56;87.07;101237.59;5027326;28;20108;-76
2022/12/12 09:34:37;;;;;;;23.00;9.50;;;;;;;-3.56;86.91;101233.34;5016306;28;20030;-77
2022/12/12 09:37:04;;;;;;;20.90;8.40;;;;;;;-3.54;86.88;101230.88;5018542;28;20021;-77
2022/12/12 09:39:29;;;;;;;19.07;8.07;;;;;;;-3.52;87.07;101234.38;5015946;28;20124;-77
2022/12/12 09:41:55;;;;;;;20.47;8.23;;;;;;;-3.49;86.72;101239.53;5025525;28;20181;-77
2022/12/12 09:44:21;;;;;;;23.50;8.97;;;;;;;-3.45;86.89;101238.00;5029086;28;20029;-77
2022/12/12 09:46:49;;;;;;;22.63;9.20;;;;;;;-3.42;86.77;101236.44;5009600;28;20132;-77
2022/12/12 09:49:28;;;;;;;18.87;7.53;;;;;;;-3.36;87.02;101233.25;5026107;28;20537;-77
2022/12/12 09:51:55;;;;;;;21.63;8.43;;;;;;;-3.33;87.06;101230.81;5027226;28;20026;-77
2022/12/12 09:54:23;;;;;;;21.30;7.93;;;;;;;-3.29;87.02;101235.22;5017851;28;20556;-77
2022/12/12 09:57:01;;;;;;;23.43;8.63;;;;;;;-3.26;87.39;101237.88;5022027;28;20037;-77
2022/12/12 09:59:39;;;;;;;19.97;8.20;;;;;;;-3.22;86.84;101239.72;5021093;28;20079;-77
2022/12/12 10:02:22;;;;;;;20.40;7.93;;;;;;;-3.18;86.98;101239.84;5018914;28;20494;-77
2022/12/12 10:05:26;;;;;;;20.97;8.57;;;;;;;-3.13;86.64;101236.66;5022297;28;20472;-77
2022/12/12 10:08:03;;;;;;;21.97;7.80;;;;;;;-3.09;87.19;101238.50;5019574;28;20477;-77
2022/12/12 10:10:38;;;;;;;21.50;8.20;;;;;;;-3.05;86.74;101236.91;5020872;28;20058;-76
2022/12/12 10:13:13;;;;;;;21.77;8.23;;;;;;;-2.99;87.02;101233.75;5021795;28;20029;-77
2022/12/12 10:15:42;;;;;;;18.07;7.87;;;;;;;-2.95;87.68;101236.47;5019200;28;20472;-77
2022/12/12 10:18:21;;;;;;;23.43;7.93;;;;;;;-2.94;87.08;101220.38;5017172;28;20560;-77
2022/12/12 10:20:50;;;;;;;19.17;7.53;;;;;;;-2.90;86.72;101219.66;5027406;28;20132;-77
2022/12/12 10:23:38;;;;;;;23.43;8.57;;;;;;;-2.87;87.67;101225.66;5023761;28;20422;-76
2022/12/12 10:26:30;;;;;;;21.17;8.03;;;;;;;-2.85;86.65;101222.38;5025718;28;20065;-77
2022/12/12 10:29:16;;;;;;;21.80;8.63;;;;;;;-2.81;87.31;101221.66;5019093;28;20516;-76
2022/12/12 10:31:58;;;;;;;21.10;7.97;;;;;;;-2.79;86.78;101217.50;5019861;28;20026;-77
2022/12/12 10:34:41;;;;;;;23.42;8.93;;;;;;;-2.72;87.20;101220.25;5022215;28;20060;-76
2022/12/12 10:37:34;;;;;;;20.50;7.67;;;;;;;-2.68;86.44;101222.97;5025732;28;20033;-76
2022/12/12 10:40:05;;;;;;;19.53;7.50;;;;;;;-2.64;86.60;101218.81;5027372;28;20027;-77
2022/12/12 10:42:46;;;;;;;21.67;8.15;;;;;;;-2.61;86.73;101208.75;5019888;28;20029;-77
2022/12/12 10:45:35;;;;;;;19.27;7.50;;;;;;;-2.53;86.65;101221.75;5024485;28;20028;-77
2022/12/12 10:48:00;;;;;;;16.30;7.07;;;;;;;-2.50;86.29;101214.22;5013117;28;20111;-77
2022/12/12 10:50:37;;;;;;;19.27;7.63;;;;;;;-2.47;86.84;101214.31;5030876;28;20847;-77
2022/12/12 10:53:05;;;;;;;17.30;7.13;;;;;;;-2.42;86.11;101206.81;5024183;28;20476;-77
2022/12/12 10:55:58;;;;;;;19.87;7.77;;;;;;;-2.38;85.94;101206.97;5031780;28;20029;-77
2022/12/12 10:58:25;;;;;;;18.00;7.07;;;;;;;-2.34;86.54;101203.72;5033582;28;20099;-77
2022/12/12 11:01:00;;;;;;;18.43;7.17;;;;;;;-2.30;86.21;101204.69;5028601;28;20059;-77
2022/12/12 11:03:33;;;;;;;18.10;7.73;;;;;;;-2.25;85.96;101209.94;5030891;28;20036;-77
2022/12/12 11:06:03;;;;;;;18.30;7.23;;;;;;;-2.21;86.01;101204.09;5024652;28;20485;-77
2022/12/12 11:08:31;;;;;;;21.03;7.20;;;;;;;-2.17;85.67;101203.41;5022935;28;20512;-77
2022/12/12 11:11:18;;;;;;;17.10;7.13;;;;;;;-2.13;86.10;101201.00;5030412;28;20031;-77
2022/12/12 11:13:49;;;;;;;17.60;7.63;;;;;;;-2.07;85.69;101197.81;5026900;28;20025;-77
2022/12/12 11:16:21;;;;;;;18.80;6.68;;;;;;;-2.02;85.60;101196.25;5022015;28;20030;-77
2022/12/12 11:18:59;;;;;;;18.47;7.57;;;;;;;-1.96;85.31;101192.16;5025018;28;20071;-77
2022/12/12 11:21:25;;;;;;;17.73;6.90;;;;;;;-1.91;85.40;101188.09;5020856;28;20504;-76
2022/12/12 11:23:56;;;;;;;20.10;7.30;;;;;;;-1.88;85.46;101199.22;5028013;28;20068;-77
2022/12/12 11:26:22;;;;;;;20.00;7.53;;;;;;;-1.83;84.88;101186.63;5031811;28;20040;-76
2022/12/12 11:29:01;;;;;;;19.67;7.63;;;;;;;-1.78;85.19;101187.63;5020428;28;20046;-77
2022/12/12 11:31:33;;;;;;;20.37;7.27;;;;;;;-1.75;85.06;101190.28;5025566;28;20025;-76
2022/12/12 11:34:03;;;;;;;17.90;7.40;;;;;;;-1.70;84.61;101191.25;5025021;28;20029;-77
2022/12/12 11:36:37;;;;;;;16.87;6.40;;;;;;;-1.64;85.10;101192.28;5023832;28;20033;-77
2022/12/12 11:39:19;;;;;;;17.63;7.30;;;;;;;-1.61;84.37;101179.63;5020933;28;20025;-77
2022/12/12 11:42:03;;;;;;;;;;;;;;;-1.56;85.21;101181.47;5024567;28;20109;-77